sensor_id;sensor_type;location;lat;lon;timestamp;P1;durP1;ratioP1;P2;durP2;ratioP2
10389;SDS011;5241;47.830;12.972;2022-07-06T00:00:59;2.03;;;1.70;;
10389;SDS011;5241;47.830;12.972;2022-07-06T00:03:25;2.37;;;1.63;;
10389;SDS011;5241;47.830;12.972;2022-07-06T00:05:51;3.73;;;1.83;;
10389;SDS011;5241;47.830;12.972;2022-07-06T00:08:16;1.87;;;1.60;;
10389;SDS011;5241;47.830;12.972;2022-07-06T00:10:42;1.80;;;1.70;;
10389;SDS011;5241;47.830;12.972;2022-07-06T00:13:08;1.80;;;1.70;;
10389;SDS011;5241;47.830;12.972;2022-07-06T00:15:34;1.90;;;1.80;;
10389;SDS011;5241;47.830;12.972;2022-07-06T00:17:59;2.63;;;1.90;;
10389;SDS011;5241;47.830;12.972;2022-07-06T00:20:25;3.77;;;1.80;;
10389;SDS011;5241;47.830;12.972;2022-07-06T00:22:51;1.60;;;1.47;;
10389;SDS011;5241;47.830;12.972;2022-07-06T00:25:16;2.20;;;1.57;;
10389;SDS011;5241;47.830;12.972;2022-07-06T00:27:42;2.23;;;1.43;;
10389;SDS011;5241;47.830;12.972;2022-07-06T00:30:07;1.50;;;1.40;;
10389;SDS011;5241;47.830;12.972;2022-07-06T00:32:33;2.03;;;1.80;;
10389;SDS011;5241;47.830;12.972;2022-07-06T00:34:59;3.43;;;1.80;;
10389;SDS011;5241;47.830;12.972;2022-07-06T00:37:24;1.80;;;1.70;;
10389;SDS011;5241;47.830;12.972;2022-07-06T00:39:50;2.60;;;1.50;;
10389;SDS011;5241;47.830;12.972;2022-07-06T00:42:15;1.70;;;1.60;;
10389;SDS011;5241;47.830;12.972;2022-07-06T00:44:41;2.93;;;1.90;;
10389;SDS011;5241;47.830;12.972;2022-07-06T00:47:06;2.23;;;1.67;;
10389;SDS011;5241;47.830;12.972;2022-07-06T00:49:32;2.33;;;1.80;;
10389;SDS011;5241;47.830;12.972;2022-07-06T00:52:17;2.80;;;1.60;;
10389;SDS011;5241;47.830;12.972;2022-07-06T00:54:43;2.47;;;1.73;;
10389;SDS011;5241;47.830;12.972;2022-07-06T00:57:09;2.30;;;1.63;;
10389;SDS011;5241;47.830;12.972;2022-07-06T00:59:35;2.20;;;2.00;;
10389;SDS011;5241;47.830;12.972;2022-07-06T01:02:01;2.00;;;1.83;;
10389;SDS011;5241;47.830;12.972;2022-07-06T01:04:26;3.57;;;1.97;;
10389;SDS011;5241;47.830;12.972;2022-07-06T01:06:53;1.87;;;1.77;;
10389;SDS011;5241;47.830;12.972;2022-07-06T01:09:18;2.33;;;2.00;;
10389;SDS011;5241;47.830;12.972;2022-07-06T01:11:44;3.20;;;1.90;;
10389;SDS011;5241;47.830;12.972;2022-07-06T01:14:10;1.93;;;1.50;;
10389;SDS011;5241;47.830;12.972;2022-07-06T01:16:37;4.00;;;1.90;;
10389;SDS011;5241;47.830;12.972;2022-07-06T01:19:03;3.10;;;1.60;;
10389;SDS011;5241;47.830;12.972;2022-07-06T01:21:28;2.27;;;1.70;;
10389;SDS011;5241;47.830;12.972;2022-07-06T01:23:54;2.80;;;1.90;;
10389;SDS011;5241;47.830;12.972;2022-07-06T01:26:20;1.77;;;1.67;;
10389;SDS011;5241;47.830;12.972;2022-07-06T01:28:46;2.03;;;1.60;;
10389;SDS011;5241;47.830;12.972;2022-07-06T01:31:20;1.73;;;1.63;;
10389;SDS011;5241;47.830;12.972;2022-07-06T01:33:53;2.10;;;1.87;;
10389;SDS011;5241;47.830;12.972;2022-07-06T01:36:20;2.63;;;1.80;;
10389;SDS011;5241;47.830;12.972;2022-07-06T01:41:16;2.87;;;1.80;;
10389;SDS011;5241;47.830;12.972;2022-07-06T01:43:43;1.80;;;1.70;;
10389;SDS011;5241;47.830;12.972;2022-07-06T01:46:09;4.50;;;2.30;;
10389;SDS011;5241;47.830;12.972;2022-07-06T01:48:35;2.20;;;1.80;;
10389;SDS011;5241;47.830;12.972;2022-07-06T01:51:01;3.27;;;1.87;;
10389;SDS011;5241;47.830;12.972;2022-07-06T01:53:27;1.87;;;1.73;;
10389;SDS011;5241;47.830;12.972;2022-07-06T01:55:53;1.90;;;1.70;;
10389;SDS011;5241;47.830;12.972;2022-07-06T01:58:19;3.30;;;1.70;;
10389;SDS011;5241;47.830;12.972;2022-07-06T02:00:44;1.97;;;1.87;;
10389;SDS011;5241;47.830;12.972;2022-07-06T02:03:10;2.73;;;1.97;;
10389;SDS011;5241;47.830;12.972;2022-07-06T02:05:35;3.20;;;2.00;;
10389;SDS011;5241;47.830;12.972;2022-07-06T02:08:01;3.60;;;2.20;;
10389;SDS011;5241;47.830;12.972;2022-07-06T02:10:26;3.20;;;2.20;;
10389;SDS011;5241;47.830;12.972;2022-07-06T02:12:52;2.20;;;2.00;;
10389;SDS011;5241;47.830;12.972;2022-07-06T02:15:17;2.57;;;2.30;;
10389;SDS011;5241;47.830;12.972;2022-07-06T02:17:43;2.60;;;2.40;;
10389;SDS011;5241;47.830;12.972;2022-07-06T02:20:08;2.83;;;2.43;;
10389;SDS011;5241;47.830;12.972;2022-07-06T02:22:34;3.20;;;2.53;;
10389;SDS011;5241;47.830;12.972;2022-07-06T02:25:00;4.50;;;2.87;;
10389;SDS011;5241;47.830;12.972;2022-07-06T02:27:25;5.67;;;2.67;;
10389;SDS011;5241;47.830;12.972;2022-07-06T02:29:51;3.17;;;2.60;;
10389;SDS011;5241;47.830;12.972;2022-07-06T02:32:16;5.93;;;3.10;;
10389;SDS011;5241;47.830;12.972;2022-07-06T02:34:42;3.20;;;2.70;;
10389;SDS011;5241;47.830;12.972;2022-07-06T02:37:08;3.23;;;2.50;;
10389;SDS011;5241;47.830;12.972;2022-07-06T02:39:34;5.70;;;2.50;;
10389;SDS011;5241;47.830;12.972;2022-07-06T02:41:59;2.50;;;2.30;;
10389;SDS011;5241;47.830;12.972;2022-07-06T02:44:25;2.83;;;2.53;;
10389;SDS011;5241;47.830;12.972;2022-07-06T02:46:50;3.63;;;2.53;;
10389;SDS011;5241;47.830;12.972;2022-07-06T02:49:16;2.97;;;2.47;;
10389;SDS011;5241;47.830;12.972;2022-07-06T02:51:41;2.63;;;2.37;;
10389;SDS011;5241;47.830;12.972;2022-07-06T02:54:07;3.50;;;2.70;;
10389;SDS011;5241;47.830;12.972;2022-07-06T02:56:32;3.10;;;2.80;;
10389;SDS011;5241;47.830;12.972;2022-07-06T02:58:58;2.73;;;2.50;;
10389;SDS011;5241;47.830;12.972;2022-07-06T03:01:23;4.03;;;2.70;;
10389;SDS011;5241;47.830;12.972;2022-07-06T03:03:49;3.03;;;2.40;;
10389;SDS011;5241;47.830;12.972;2022-07-06T03:06:14;3.83;;;2.83;;
10389;SDS011;5241;47.830;12.972;2022-07-06T03:08:40;4.37;;;2.47;;
10389;SDS011;5241;47.830;12.972;2022-07-06T03:11:05;2.63;;;2.43;;
10389;SDS011;5241;47.830;12.972;2022-07-06T03:13:31;2.70;;;2.50;;
10389;SDS011;5241;47.830;12.972;2022-07-06T03:15:56;2.63;;;2.40;;
10389;SDS011;5241;47.830;12.972;2022-07-06T03:18:22;3.00;;;2.70;;
10389;SDS011;5241;47.830;12.972;2022-07-06T03:20:48;3.50;;;3.20;;
10389;SDS011;5241;47.830;12.972;2022-07-06T03:23:13;2.87;;;2.67;;
10389;SDS011;5241;47.830;12.972;2022-07-06T03:25:39;5.37;;;2.87;;
10389;SDS011;5241;47.830;12.972;2022-07-06T03:28:04;5.00;;;2.73;;
10389;SDS011;5241;47.830;12.972;2022-07-06T03:30:30;4.93;;;2.50;;
10389;SDS011;5241;47.830;12.972;2022-07-06T03:32:55;2.80;;;2.53;;
10389;SDS011;5241;47.830;12.972;2022-07-06T03:35:21;5.13;;;2.90;;
10389;SDS011;5241;47.830;12.972;2022-07-06T03:37:46;3.20;;;2.60;;
10389;SDS011;5241;47.830;12.972;2022-07-06T03:40:12;5.30;;;2.70;;
10389;SDS011;5241;47.830;12.972;2022-07-06T03:42:38;3.70;;;2.60;;
10389;SDS011;5241;47.830;12.972;2022-07-06T03:45:04;3.43;;;2.60;;
10389;SDS011;5241;47.830;12.972;2022-07-06T03:47:30;3.00;;;2.70;;
10389;SDS011;5241;47.830;12.972;2022-07-06T03:49:56;3.00;;;2.80;;
10389;SDS011;5241;47.830;12.972;2022-07-06T03:52:21;3.00;;;2.70;;
10389;SDS011;5241;47.830;12.972;2022-07-06T03:54:47;3.67;;;2.83;;
10389;SDS011;5241;47.830;12.972;2022-07-06T03:57:13;3.17;;;2.87;;
10389;SDS011;5241;47.830;12.972;2022-07-06T03:59:39;2.97;;;2.53;;
10389;SDS011;5241;47.830;12.972;2022-07-06T04:02:05;5.87;;;2.80;;
10389;SDS011;5241;47.830;12.972;2022-07-06T04:04:31;4.70;;;2.87;;
10389;SDS011;5241;47.830;12.972;2022-07-06T04:06:58;4.60;;;2.80;;
10389;SDS011;5241;47.830;12.972;2022-07-06T04:09:23;3.37;;;2.60;;
10389;SDS011;5241;47.830;12.972;2022-07-06T04:11:49;3.23;;;2.70;;
10389;SDS011;5241;47.830;12.972;2022-07-06T04:14:15;3.23;;;2.90;;
10389;SDS011;5241;47.830;12.972;2022-07-06T04:16:40;6.13;;;2.80;;
10389;SDS011;5241;47.830;12.972;2022-07-06T04:19:06;2.70;;;2.50;;
10389;SDS011;5241;47.830;12.972;2022-07-06T04:21:31;3.07;;;2.47;;
10389;SDS011;5241;47.830;12.972;2022-07-06T04:23:57;4.50;;;2.60;;
10389;SDS011;5241;47.830;12.972;2022-07-06T04:26:22;5.70;;;2.50;;
10389;SDS011;5241;47.830;12.972;2022-07-06T04:28:48;3.43;;;2.50;;
10389;SDS011;5241;47.830;12.972;2022-07-06T04:31:14;2.73;;;2.53;;
10389;SDS011;5241;47.830;12.972;2022-07-06T04:33:40;4.73;;;2.57;;
10389;SDS011;5241;47.830;12.972;2022-07-06T04:36:08;3.33;;;2.43;;
10389;SDS011;5241;47.830;12.972;2022-07-06T04:38:34;5.63;;;2.60;;
10389;SDS011;5241;47.830;12.972;2022-07-06T04:41:00;2.87;;;2.47;;
10389;SDS011;5241;47.830;12.972;2022-07-06T04:43:25;2.40;;;2.20;;
10389;SDS011;5241;47.830;12.972;2022-07-06T04:45:51;3.70;;;2.47;;
10389;SDS011;5241;47.830;12.972;2022-07-06T04:48:16;4.77;;;2.30;;
10389;SDS011;5241;47.830;12.972;2022-07-06T04:50:42;10.43;;;2.50;;
10389;SDS011;5241;47.830;12.972;2022-07-06T04:53:07;6.63;;;2.77;;
10389;SDS011;5241;47.830;12.972;2022-07-06T04:55:33;2.80;;;2.60;;
10389;SDS011;5241;47.830;12.972;2022-07-06T04:57:58;3.00;;;2.50;;
10389;SDS011;5241;47.830;12.972;2022-07-06T05:00:24;3.13;;;2.50;;
10389;SDS011;5241;47.830;12.972;2022-07-06T05:02:50;5.77;;;2.50;;
10389;SDS011;5241;47.830;12.972;2022-07-06T05:05:15;4.00;;;2.60;;
10389;SDS011;5241;47.830;12.972;2022-07-06T05:07:41;5.43;;;2.37;;
10389;SDS011;5241;47.830;12.972;2022-07-06T05:10:10;2.13;;;1.90;;
10389;SDS011;5241;47.830;12.972;2022-07-06T05:12:36;5.67;;;2.40;;
10389;SDS011;5241;47.830;12.972;2022-07-06T05:15:03;4.30;;;2.00;;
10389;SDS011;5241;47.830;12.972;2022-07-06T05:17:29;4.47;;;2.30;;
10389;SDS011;5241;47.830;12.972;2022-07-06T05:19:55;4.37;;;2.40;;
10389;SDS011;5241;47.830;12.972;2022-07-06T05:22:21;5.93;;;2.43;;
10389;SDS011;5241;47.830;12.972;2022-07-06T05:24:47;6.20;;;2.60;;
10389;SDS011;5241;47.830;12.972;2022-07-06T05:27:12;2.93;;;2.10;;
10389;SDS011;5241;47.830;12.972;2022-07-06T05:29:38;4.70;;;2.23;;
10389;SDS011;5241;47.830;12.972;2022-07-06T05:32:03;4.57;;;2.03;;
10389;SDS011;5241;47.830;12.972;2022-07-06T05:34:29;3.97;;;2.00;;
10389;SDS011;5241;47.830;12.972;2022-07-06T05:36:55;9.57;;;2.30;;
10389;SDS011;5241;47.830;12.972;2022-07-06T05:39:20;4.77;;;2.00;;
10389;SDS011;5241;47.830;12.972;2022-07-06T05:41:47;4.57;;;2.00;;
10389;SDS011;5241;47.830;12.972;2022-07-06T05:44:13;4.03;;;1.70;;
10389;SDS011;5241;47.830;12.972;2022-07-06T05:46:39;3.83;;;2.20;;
10389;SDS011;5241;47.830;12.972;2022-07-06T05:49:05;6.37;;;2.00;;
10389;SDS011;5241;47.830;12.972;2022-07-06T05:51:49;6.43;;;1.90;;
10389;SDS011;5241;47.830;12.972;2022-07-06T05:54:15;3.63;;;1.87;;
10389;SDS011;5241;47.830;12.972;2022-07-06T05:56:40;2.97;;;2.20;;
10389;SDS011;5241;47.830;12.972;2022-07-06T05:59:06;3.63;;;1.93;;
10389;SDS011;5241;47.830;12.972;2022-07-06T06:01:32;3.70;;;2.10;;
10389;SDS011;5241;47.830;12.972;2022-07-06T06:03:57;6.63;;;2.00;;
10389;SDS011;5241;47.830;12.972;2022-07-06T06:06:24;3.43;;;2.30;;
10389;SDS011;5241;47.830;12.972;2022-07-06T06:08:50;4.30;;;2.00;;
10389;SDS011;5241;47.830;12.972;2022-07-06T06:11:16;1.93;;;1.73;;
10389;SDS011;5241;47.830;12.972;2022-07-06T06:13:42;4.50;;;2.23;;
10389;SDS011;5241;47.830;12.972;2022-07-06T06:16:07;2.50;;;2.10;;
10389;SDS011;5241;47.830;12.972;2022-07-06T06:18:33;3.77;;;1.97;;
10389;SDS011;5241;47.830;12.972;2022-07-06T06:20:59;4.00;;;2.10;;
10389;SDS011;5241;47.830;12.972;2022-07-06T06:23:25;3.67;;;2.10;;
10389;SDS011;5241;47.830;12.972;2022-07-06T06:25:50;4.17;;;1.80;;
10389;SDS011;5241;47.830;12.972;2022-07-06T06:28:16;2.57;;;2.10;;
10389;SDS011;5241;47.830;12.972;2022-07-06T06:30:41;3.83;;;1.90;;
10389;SDS011;5241;47.830;12.972;2022-07-06T06:35:34;3.07;;;1.90;;
10389;SDS011;5241;47.830;12.972;2022-07-06T06:38:00;3.70;;;1.80;;
10389;SDS011;5241;47.830;12.972;2022-07-06T06:40:25;4.93;;;2.20;;
10389;SDS011;5241;47.830;12.972;2022-07-06T06:42:51;4.00;;;2.30;;
10389;SDS011;5241;47.830;12.972;2022-07-06T06:45:16;5.80;;;2.40;;
10389;SDS011;5241;47.830;12.972;2022-07-06T06:47:42;4.67;;;2.30;;
10389;SDS011;5241;47.830;12.972;2022-07-06T06:50:07;3.67;;;2.00;;
10389;SDS011;5241;47.830;12.972;2022-07-06T06:52:33;5.33;;;2.00;;
10389;SDS011;5241;47.830;12.972;2022-07-06T06:54:58;3.00;;;2.10;;
10389;SDS011;5241;47.830;12.972;2022-07-06T06:57:24;3.37;;;2.00;;
10389;SDS011;5241;47.830;12.972;2022-07-06T06:59:50;3.00;;;2.03;;
10389;SDS011;5241;47.830;12.972;2022-07-06T07:02:15;3.37;;;2.20;;
10389;SDS011;5241;47.830;12.972;2022-07-06T07:04:41;2.80;;;2.30;;
10389;SDS011;5241;47.830;12.972;2022-07-06T07:07:06;3.27;;;1.97;;
10389;SDS011;5241;47.830;12.972;2022-07-06T07:09:32;4.73;;;1.90;;
10389;SDS011;5241;47.830;12.972;2022-07-06T07:11:57;2.40;;;1.70;;
10389;SDS011;5241;47.830;12.972;2022-07-06T07:14:23;3.20;;;1.83;;
10389;SDS011;5241;47.830;12.972;2022-07-06T07:16:49;2.87;;;1.60;;
10389;SDS011;5241;47.830;12.972;2022-07-06T07:19:14;2.73;;;1.77;;
10389;SDS011;5241;47.830;12.972;2022-07-06T07:21:40;6.93;;;2.10;;
10389;SDS011;5241;47.830;12.972;2022-07-06T07:24:06;3.17;;;1.57;;
10389;SDS011;5241;47.830;12.972;2022-07-06T07:26:32;4.10;;;2.00;;
10389;SDS011;5241;47.830;12.972;2022-07-06T07:28:58;3.67;;;1.90;;
10389;SDS011;5241;47.830;12.972;2022-07-06T07:31:23;3.70;;;1.90;;
10389;SDS011;5241;47.830;12.972;2022-07-06T07:33:49;2.80;;;1.80;;
10389;SDS011;5241;47.830;12.972;2022-07-06T07:36:14;3.33;;;2.00;;
10389;SDS011;5241;47.830;12.972;2022-07-06T07:38:40;3.37;;;1.90;;
10389;SDS011;5241;47.830;12.972;2022-07-06T07:41:06;2.63;;;1.87;;
10389;SDS011;5241;47.830;12.972;2022-07-06T07:43:31;2.37;;;1.77;;
10389;SDS011;5241;47.830;12.972;2022-07-06T07:45:57;4.27;;;1.90;;
10389;SDS011;5241;47.830;12.972;2022-07-06T07:48:22;1.70;;;1.50;;
10389;SDS011;5241;47.830;12.972;2022-07-06T07:50:48;2.40;;;1.70;;
10389;SDS011;5241;47.830;12.972;2022-07-06T07:53:13;3.10;;;1.70;;
10389;SDS011;5241;47.830;12.972;2022-07-06T07:55:39;3.00;;;1.87;;
10389;SDS011;5241;47.830;12.972;2022-07-06T07:58:05;8.10;;;2.90;;
10389;SDS011;5241;47.830;12.972;2022-07-06T08:00:30;6.90;;;2.77;;
10389;SDS011;5241;47.830;12.972;2022-07-06T08:02:56;29.08;;;7.03;;
10389;SDS011;5241;47.830;12.972;2022-07-06T08:05:22;1.95;;;1.70;;
10389;SDS011;5241;47.830;12.972;2022-07-06T08:07:47;6.63;;;2.83;;
10389;SDS011;5241;47.830;12.972;2022-07-06T08:10:13;19.33;;;5.35;;
10389;SDS011;5241;47.830;12.972;2022-07-06T08:12:39;24.83;;;6.57;;
10389;SDS011;5241;47.830;12.972;2022-07-06T08:15:05;18.30;;;4.75;;
10389;SDS011;5241;47.830;12.972;2022-07-06T08:17:31;3.40;;;1.83;;
10389;SDS011;5241;47.830;12.972;2022-07-06T08:19:56;2.58;;;1.40;;
10389;SDS011;5241;47.830;12.972;2022-07-06T08:22:22;3.17;;;1.30;;
10389;SDS011;5241;47.830;12.972;2022-07-06T08:24:48;1.60;;;1.23;;
10389;SDS011;5241;47.830;12.972;2022-07-06T08:27:14;1.57;;;1.27;;
10389;SDS011;5241;47.830;12.972;2022-07-06T08:29:39;2.17;;;1.13;;
10389;SDS011;5241;47.830;12.972;2022-07-06T08:32:05;1.47;;;1.27;;
10389;SDS011;5241;47.830;12.972;2022-07-06T08:34:31;2.67;;;1.40;;
10389;SDS011;5241;47.830;12.972;2022-07-06T08:36:56;2.40;;;1.30;;
10389;SDS011;5241;47.830;12.972;2022-07-06T08:39:22;2.00;;;1.53;;
10389;SDS011;5241;47.830;12.972;2022-07-06T08:41:47;1.70;;;1.23;;
10389;SDS011;5241;47.830;12.972;2022-07-06T08:44:17;2.17;;;1.47;;
10389;SDS011;5241;47.830;12.972;2022-07-06T08:46:43;1.60;;;1.30;;
10389;SDS011;5241;47.830;12.972;2022-07-06T08:49:12;1.60;;;1.40;;
10389;SDS011;5241;47.830;12.972;2022-07-06T08:51:38;1.47;;;1.10;;
10389;SDS011;5241;47.830;12.972;2022-07-06T08:54:05;1.50;;;1.40;;
10389;SDS011;5241;47.830;12.972;2022-07-06T08:56:32;2.43;;;1.53;;
10389;SDS011;5241;47.830;12.972;2022-07-06T08:58:58;1.53;;;1.43;;
10389;SDS011;5241;47.830;12.972;2022-07-06T09:01:24;3.07;;;1.53;;
10389;SDS011;5241;47.830;12.972;2022-07-06T09:03:50;1.40;;;1.30;;
10389;SDS011;5241;47.830;12.972;2022-07-06T09:06:19;2.20;;;1.27;;
10389;SDS011;5241;47.830;12.972;2022-07-06T09:08:49;2.43;;;1.30;;
10389;SDS011;5241;47.830;12.972;2022-07-06T09:11:17;4.43;;;1.30;;
10389;SDS011;5241;47.830;12.972;2022-07-06T09:13:42;1.40;;;1.23;;
10389;SDS011;5241;47.830;12.972;2022-07-06T09:16:12;2.70;;;1.37;;
10389;SDS011;5241;47.830;12.972;2022-07-06T09:18:39;2.27;;;1.40;;
10389;SDS011;5241;47.830;12.972;2022-07-06T09:21:07;2.17;;;1.47;;
10389;SDS011;5241;47.830;12.972;2022-07-06T09:23:33;3.03;;;1.40;;
10389;SDS011;5241;47.830;12.972;2022-07-06T09:26:01;2.33;;;1.30;;
10389;SDS011;5241;47.830;12.972;2022-07-06T09:28:44;1.67;;;1.20;;
10389;SDS011;5241;47.830;12.972;2022-07-06T09:31:10;2.27;;;1.50;;
10389;SDS011;5241;47.830;12.972;2022-07-06T09:33:37;3.57;;;1.37;;
10389;SDS011;5241;47.830;12.972;2022-07-06T09:36:03;1.93;;;1.30;;
10389;SDS011;5241;47.830;12.972;2022-07-06T09:38:30;3.90;;;1.40;;
10389;SDS011;5241;47.830;12.972;2022-07-06T09:40:56;2.53;;;1.30;;
10389;SDS011;5241;47.830;12.972;2022-07-06T09:43:23;1.70;;;1.43;;
10389;SDS011;5241;47.830;12.972;2022-07-06T09:45:50;1.30;;;1.20;;
10389;SDS011;5241;47.830;12.972;2022-07-06T09:48:20;2.03;;;1.40;;
10389;SDS011;5241;47.830;12.972;2022-07-06T09:50:51;2.13;;;1.30;;
10389;SDS011;5241;47.830;12.972;2022-07-06T09:53:19;4.43;;;1.40;;
10389;SDS011;5241;47.830;12.972;2022-07-06T09:55:46;2.60;;;1.60;;
10389;SDS011;5241;47.830;12.972;2022-07-06T09:58:13;2.47;;;1.50;;
10389;SDS011;5241;47.830;12.972;2022-07-06T10:00:40;2.10;;;1.63;;
10389;SDS011;5241;47.830;12.972;2022-07-06T10:03:06;1.77;;;1.40;;
10389;SDS011;5241;47.830;12.972;2022-07-06T10:05:33;1.40;;;1.30;;
10389;SDS011;5241;47.830;12.972;2022-07-06T10:08:02;1.30;;;1.20;;
10389;SDS011;5241;47.830;12.972;2022-07-06T10:10:30;1.87;;;1.20;;
10389;SDS011;5241;47.830;12.972;2022-07-06T10:12:56;1.60;;;1.50;;
10389;SDS011;5241;47.830;12.972;2022-07-06T10:15:24;3.13;;;1.50;;
10389;SDS011;5241;47.830;12.972;2022-07-06T10:17:51;2.50;;;1.17;;
10389;SDS011;5241;47.830;12.972;2022-07-06T10:20:17;1.43;;;1.20;;
10389;SDS011;5241;47.830;12.972;2022-07-06T10:22:45;1.73;;;1.40;;
10389;SDS011;5241;47.830;12.972;2022-07-06T10:25:12;1.73;;;1.50;;
10389;SDS011;5241;47.830;12.972;2022-07-06T10:27:42;2.63;;;1.63;;
10389;SDS011;5241;47.830;12.972;2022-07-06T10:30:10;1.57;;;1.47;;
10389;SDS011;5241;47.830;12.972;2022-07-06T10:32:36;1.50;;;1.30;;
10389;SDS011;5241;47.830;12.972;2022-07-06T10:35:05;3.83;;;1.70;;
10389;SDS011;5241;47.830;12.972;2022-07-06T10:37:32;2.20;;;1.50;;
10389;SDS011;5241;47.830;12.972;2022-07-06T10:39:59;2.10;;;1.63;;
10389;SDS011;5241;47.830;12.972;2022-07-06T10:45:20;4.63;;;1.50;;
10389;SDS011;5241;47.830;12.972;2022-07-06T10:53:22;3.40;;;1.60;;
10389;SDS011;5241;47.830;12.972;2022-07-06T10:55:49;1.40;;;1.30;;
10389;SDS011;5241;47.830;12.972;2022-07-06T11:01:21;2.80;;;1.43;;
10389;SDS011;5241;47.830;12.972;2022-07-06T11:06:33;1.73;;;1.60;;
10389;SDS011;5241;47.830;12.972;2022-07-06T11:09:05;2.40;;;1.60;;
10389;SDS011;5241;47.830;12.972;2022-07-06T11:14:02;1.50;;;1.37;;
10389;SDS011;5241;47.830;12.972;2022-07-06T11:16:31;2.83;;;1.57;;
10389;SDS011;5241;47.830;12.972;2022-07-06T11:19:11;2.83;;;1.30;;
10389;SDS011;5241;47.830;12.972;2022-07-06T11:21:52;1.60;;;1.33;;
10389;SDS011;5241;47.830;12.972;2022-07-06T11:24:31;1.67;;;1.30;;
10389;SDS011;5241;47.830;12.972;2022-07-06T11:26:58;1.50;;;1.40;;
10389;SDS011;5241;47.830;12.972;2022-07-06T11:29:26;2.67;;;1.27;;
10389;SDS011;5241;47.830;12.972;2022-07-06T11:31:55;2.53;;;1.67;;
10389;SDS011;5241;47.830;12.972;2022-07-06T11:34:29;3.97;;;1.50;;
10389;SDS011;5241;47.830;12.972;2022-07-06T11:37:03;1.80;;;1.57;;
10389;SDS011;5241;47.830;12.972;2022-07-06T11:39:32;2.33;;;1.30;;
10389;SDS011;5241;47.830;12.972;2022-07-06T11:41:59;2.17;;;1.67;;
10389;SDS011;5241;47.830;12.972;2022-07-06T11:44:26;2.30;;;1.40;;
10389;SDS011;5241;47.830;12.972;2022-07-06T11:46:52;2.37;;;1.40;;
10389;SDS011;5241;47.830;12.972;2022-07-06T11:49:21;2.43;;;1.47;;
10389;SDS011;5241;47.830;12.972;2022-07-06T11:51:46;2.33;;;1.47;;
10389;SDS011;5241;47.830;12.972;2022-07-06T11:54:13;1.73;;;1.63;;
10389;SDS011;5241;47.830;12.972;2022-07-06T11:59:11;1.63;;;1.43;;
10389;SDS011;5241;47.830;12.972;2022-07-06T12:01:36;1.70;;;1.60;;
10389;SDS011;5241;47.830;12.972;2022-07-06T12:04:06;1.90;;;1.40;;
10389;SDS011;5241;47.830;12.972;2022-07-06T12:06:32;2.70;;;1.70;;
10389;SDS011;5241;47.830;12.972;2022-07-06T12:08:58;1.40;;;1.30;;
10389;SDS011;5241;47.830;12.972;2022-07-06T12:11:29;2.93;;;1.60;;
10389;SDS011;5241;47.830;12.972;2022-07-06T12:14:12;6.90;;;1.93;;
10389;SDS011;5241;47.830;12.972;2022-07-06T12:16:42;1.93;;;1.27;;
10389;SDS011;5241;47.830;12.972;2022-07-06T12:19:08;3.03;;;1.67;;
10389;SDS011;5241;47.830;12.972;2022-07-06T12:21:36;2.25;;;1.70;;
10389;SDS011;5241;47.830;12.972;2022-07-06T12:24:07;2.83;;;1.60;;
10389;SDS011;5241;47.830;12.972;2022-07-06T12:26:39;3.83;;;1.70;;
10389;SDS011;5241;47.830;12.972;2022-07-06T12:29:09;2.40;;;1.63;;
10389;SDS011;5241;47.830;12.972;2022-07-06T12:31:47;2.17;;;1.60;;
10389;SDS011;5241;47.830;12.972;2022-07-06T12:36:50;3.57;;;1.50;;
10389;SDS011;5241;47.830;12.972;2022-07-06T12:39:20;3.30;;;1.60;;
10389;SDS011;5241;47.830;12.972;2022-07-06T12:41:53;2.30;;;1.60;;
10389;SDS011;5241;47.830;12.972;2022-07-06T12:44:22;4.60;;;1.57;;
10389;SDS011;5241;47.830;12.972;2022-07-06T12:46:49;3.87;;;1.67;;
10389;SDS011;5241;47.830;12.972;2022-07-06T12:51:48;1.63;;;1.30;;
10389;SDS011;5241;47.830;12.972;2022-07-06T12:54:16;2.80;;;1.70;;
10389;SDS011;5241;47.830;12.972;2022-07-06T12:56:59;1.63;;;1.43;;
10389;SDS011;5241;47.830;12.972;2022-07-06T12:59:24;3.40;;;1.40;;
10389;SDS011;5241;47.830;12.972;2022-07-06T13:01:51;4.53;;;1.50;;
10389;SDS011;5241;47.830;12.972;2022-07-06T13:04:26;2.20;;;1.40;;
10389;SDS011;5241;47.830;12.972;2022-07-06T13:06:53;3.90;;;1.92;;
10389;SDS011;5241;47.830;12.972;2022-07-06T13:09:19;4.83;;;1.40;;
10389;SDS011;5241;47.830;12.972;2022-07-06T13:11:46;3.37;;;1.50;;
10389;SDS011;5241;47.830;12.972;2022-07-06T13:14:13;1.53;;;1.43;;
10389;SDS011;5241;47.830;12.972;2022-07-06T13:16:40;1.80;;;1.60;;
10389;SDS011;5241;47.830;12.972;2022-07-06T13:19:05;2.37;;;1.70;;
10389;SDS011;5241;47.830;12.972;2022-07-06T13:21:31;1.60;;;1.50;;
10389;SDS011;5241;47.830;12.972;2022-07-06T13:23:56;4.43;;;1.70;;
10389;SDS011;5241;47.830;12.972;2022-07-06T13:26:22;2.03;;;1.70;;
10389;SDS011;5241;47.830;12.972;2022-07-06T13:28:47;4.07;;;1.63;;
10389;SDS011;5241;47.830;12.972;2022-07-06T13:31:13;2.10;;;1.60;;
10389;SDS011;5241;47.830;12.972;2022-07-06T13:33:39;2.67;;;1.73;;
10389;SDS011;5241;47.830;12.972;2022-07-06T13:36:04;2.30;;;1.40;;
10389;SDS011;5241;47.830;12.972;2022-07-06T13:38:30;2.43;;;1.50;;
10389;SDS011;5241;47.830;12.972;2022-07-06T13:40:55;2.97;;;1.53;;
10389;SDS011;5241;47.830;12.972;2022-07-06T13:43:21;2.20;;;1.50;;
10389;SDS011;5241;47.830;12.972;2022-07-06T13:45:47;2.40;;;1.80;;
10389;SDS011;5241;47.830;12.972;2022-07-06T13:48:13;3.30;;;1.50;;
10389;SDS011;5241;47.830;12.972;2022-07-06T13:50:38;2.00;;;1.53;;
10389;SDS011;5241;47.830;12.972;2022-07-06T13:53:04;3.37;;;1.57;;
10389;SDS011;5241;47.830;12.972;2022-07-06T13:55:30;2.80;;;1.60;;
10389;SDS011;5241;47.830;12.972;2022-07-06T13:57:56;1.67;;;1.50;;
10389;SDS011;5241;47.830;12.972;2022-07-06T14:00:22;2.20;;;1.80;;
10389;SDS011;5241;47.830;12.972;2022-07-06T14:02:47;3.60;;;2.00;;
10389;SDS011;5241;47.830;12.972;2022-07-06T14:05:13;2.47;;;1.57;;
10389;SDS011;5241;47.830;12.972;2022-07-06T14:07:39;3.07;;;1.83;;
10389;SDS011;5241;47.830;12.972;2022-07-06T14:10:04;3.30;;;1.60;;
10389;SDS011;5241;47.830;12.972;2022-07-06T14:12:30;2.07;;;1.70;;
10389;SDS011;5241;47.830;12.972;2022-07-06T14:14:56;2.63;;;1.70;;
10389;SDS011;5241;47.830;12.972;2022-07-06T14:17:21;2.00;;;1.40;;
10389;SDS011;5241;47.830;12.972;2022-07-06T14:19:48;2.90;;;1.87;;
10389;SDS011;5241;47.830;12.972;2022-07-06T14:22:14;3.13;;;1.77;;
10389;SDS011;5241;47.830;12.972;2022-07-06T14:24:40;1.60;;;1.50;;
10389;SDS011;5241;47.830;12.972;2022-07-06T14:27:05;1.90;;;1.60;;
10389;SDS011;5241;47.830;12.972;2022-07-06T14:29:31;2.00;;;1.70;;
10389;SDS011;5241;47.830;12.972;2022-07-06T14:31:57;2.92;;;1.67;;
10389;SDS011;5241;47.830;12.972;2022-07-06T14:34:23;3.93;;;1.70;;
10389;SDS011;5241;47.830;12.972;2022-07-06T14:36:49;1.93;;;1.60;;
10389;SDS011;5241;47.830;12.972;2022-07-06T14:39:15;3.53;;;1.67;;
10389;SDS011;5241;47.830;12.972;2022-07-06T14:41:41;2.47;;;1.60;;
10389;SDS011;5241;47.830;12.972;2022-07-06T14:44:06;2.53;;;1.80;;
10389;SDS011;5241;47.830;12.972;2022-07-06T14:46:32;3.05;;;1.80;;
10389;SDS011;5241;47.830;12.972;2022-07-06T14:48:59;2.80;;;1.57;;
10389;SDS011;5241;47.830;12.972;2022-07-06T14:51:25;2.07;;;1.60;;
10389;SDS011;5241;47.830;12.972;2022-07-06T14:53:50;3.03;;;1.50;;
10389;SDS011;5241;47.830;12.972;2022-07-06T14:56:16;2.87;;;1.73;;
10389;SDS011;5241;47.830;12.972;2022-07-06T14:58:41;3.77;;;1.60;;
10389;SDS011;5241;47.830;12.972;2022-07-06T15:01:07;4.40;;;2.00;;
10389;SDS011;5241;47.830;12.972;2022-07-06T15:03:32;3.07;;;1.90;;
10389;SDS011;5241;47.830;12.972;2022-07-06T15:05:58;2.20;;;1.77;;
10389;SDS011;5241;47.830;12.972;2022-07-06T15:08:24;2.40;;;1.80;;
10389;SDS011;5241;47.830;12.972;2022-07-06T15:10:50;3.40;;;1.70;;
10389;SDS011;5241;47.830;12.972;2022-07-06T15:13:15;1.83;;;1.73;;